Aérodrome :
LOGIN :

S'inscrire | Disclaimer

   EN    FR    IT 

 










Légende :    VFR   VFR Marginal   IFR   IFR Intensif   IFR Très Intensif
Visi : 
Plafond : 
>= 8 km
>= 3000ft
5 à 8 km
1000 à 3000 ft
1500m à 5 km
500 à 1000 ft
800 à 1500m
200 à 500 ft
< 800m
< 200 ft
Symboles :   Orages  Brouillard  Fortes neiges  Fortes précipitations  Vent > 20 kt
SIGMETs :   Divers  Orages  Givrage  Turbulence  Onde Orograph.  Cendres Volcan.







- Altitude de l'aérodrome : 538 ft
- Code IATA : TNF
- Voir les cartes d'approche


LFPN - Toussus Le Noble

DERNIER METAR :
  • 200730Z AUTO 20009KT 9000 OVC004 05/05 Q1022 TEMPO 2000 BR VV///

METARs EXPIRÉS :
  • 200700Z AUTO 22007KT 8000 OVC003 05/04 Q1023 TEMPO 0500 FG VV///
  • 200630Z AUTO 22009KT 6000 OVC003 05/04 Q1023 TEMPO 0500 FG VV///
  • 200600Z AUTO 21010KT 6000 BKN003 BKN035 BKN220 05/04 Q1022 TEMPO 0500 FG VV///
  • 200530Z AUTO 20007KT CAVOK 04/03 Q1022 TEMPO 0500 FG VV///
  • 200500Z AUTO 21007KT 9999 FEW020 SCT220 04/03 Q1023

TAF TAF LFPN
Valide du 20 à 06h jusqu'au 20 à 15h UTC


200500Z 2006/2015 24006KT 9999 BKN027
TEMPO 2006/2010 2000 BR BKN002
PROB30
TEMPO 2006/2009 0500 FG VV///
BECMG 2010/2012 20010KT OVC011
TEMPO 2011/2015 4000 BR BKN002
ATIS : +33 1 39 56 54 70
Pas de NOTAMs connus pour ce terrain.



MET'MAP, la Météo Aéronautique d'un coup d'oeil ! - Copyright ORBIFLY Décembre 2007 - Disclaimer

ORBIFLY MET'MAP TEAM :

Programmation & Développement : Alexandra Zaïnal
Conception & Développement : Baudouin d'Aumeries
Co-Programmation & Développement : Marc-Olivier Méhu
Soutien technique & logistique : Manuel Goepfert

Contact : metmap@orbifly.com




SOURCES & CREDITS :

   NOAA